createdAt,value
2022-11-09T00:00:41.667Z,42.07
2022-11-09T00:03:09.166Z,40.47
2022-11-09T00:05:36.294Z,36.03
2022-11-09T00:08:08.456Z,40.47
2022-11-09T00:10:35.746Z,37.33
2022-11-09T00:13:05.635Z,40.87
2022-11-09T00:15:32.897Z,39.47
2022-11-09T00:18:03.649Z,41.70
2022-11-09T00:20:30.817Z,41.03
2022-11-09T00:22:58.306Z,36.20
2022-11-09T00:25:26.051Z,38.23
2022-11-09T00:27:54.133Z,38.07
2022-11-09T00:30:24.018Z,37.60
2022-11-09T00:32:51.483Z,42.77
2022-11-09T00:35:18.726Z,45.83
2022-11-09T00:37:46.471Z,42.67
2022-11-09T00:40:13.634Z,41.53
2022-11-09T00:42:41.041Z,39.27
2022-11-09T00:45:08.823Z,39.80
2022-11-09T00:47:37.764Z,42.93
2022-11-09T00:50:06.365Z,39.00
2022-11-09T00:52:33.835Z,42.37
2022-11-09T00:55:01.236Z,36.40
2022-11-09T00:57:28.770Z,35.90
2022-11-09T00:59:55.840Z,32.67
2022-11-09T01:02:23.289Z,43.80
2022-11-09T01:04:50.331Z,35.57
2022-11-09T01:07:17.899Z,41.30
2022-11-09T01:09:45.029Z,34.73
2022-11-09T01:12:12.455Z,37.37
2022-11-09T01:14:39.443Z,37.30
2022-11-09T01:17:07.129Z,39.17
2022-11-09T01:19:34.229Z,35.67
2022-11-09T01:22:01.595Z,37.00
2022-11-09T01:24:28.897Z,33.93
2022-11-09T01:26:56.977Z,32.10
2022-11-09T01:29:24.506Z,32.77
2022-11-09T01:31:55.673Z,35.80
2022-11-09T01:34:23.521Z,34.03
2022-11-09T01:36:54.759Z,37.40
2022-11-09T01:39:21.977Z,36.03
2022-11-09T01:41:49.452Z,34.57
2022-11-09T01:44:19.166Z,42.87
2022-11-09T01:47:04.363Z,35.37
2022-11-09T01:49:47.024Z,34.27
2022-11-09T01:52:19.689Z,34.80
2022-11-09T01:54:52.394Z,28.60
2022-11-09T01:57:26.196Z,32.53
2022-11-09T01:59:58.893Z,32.00
2022-11-09T02:02:28.862Z,34.63
2022-11-09T02:05:00.058Z,35.47
2022-11-09T02:07:28.471Z,33.13
2022-11-09T02:10:17.584Z,34.17
2022-11-09T02:12:45.911Z,34.87
2022-11-09T02:15:13.346Z,35.77
2022-11-09T02:17:41.968Z,33.63
2022-11-09T02:20:16.305Z,33.73
2022-11-09T02:22:44.135Z,38.10
2022-11-09T02:25:16.788Z,36.90
2022-11-09T02:27:44.518Z,34.20
2022-11-09T02:30:14.804Z,39.63
2022-11-09T02:32:41.989Z,32.17
2022-11-09T02:35:11.000Z,37.33
2022-11-09T02:37:49.270Z,36.03
2022-11-09T02:40:33.191Z,36.70
2022-11-09T02:43:02.211Z,35.13
2022-11-09T02:45:29.659Z,39.10
2022-11-09T02:47:56.835Z,33.57
2022-11-09T02:50:25.396Z,33.13
2022-11-09T02:52:53.465Z,35.23
2022-11-09T02:55:20.883Z,34.43
2022-11-09T02:57:48.587Z,36.47
2022-11-09T03:00:16.471Z,30.90
2022-11-09T03:02:43.514Z,37.47
2022-11-09T03:05:11.038Z,36.40
2022-11-09T03:07:38.202Z,31.67
2022-11-09T03:10:07.204Z,33.70
2022-11-09T03:12:35.389Z,36.53
2022-11-09T03:15:06.789Z,34.07
2022-11-09T03:17:34.357Z,36.43
2022-11-09T03:20:02.117Z,37.40
2022-11-09T03:22:29.249Z,34.17
2022-11-09T03:24:57.495Z,35.13
2022-11-09T03:27:25.699Z,34.13
2022-11-09T03:29:53.131Z,39.77
2022-11-09T03:32:21.941Z,32.37
2022-11-09T03:34:51.548Z,32.10
2022-11-09T03:37:19.075Z,37.47
2022-11-09T03:39:46.761Z,35.00
2022-11-09T03:42:14.251Z,35.37
2022-11-09T03:44:41.703Z,35.63
2022-11-09T03:47:08.742Z,34.17
2022-11-09T03:49:36.593Z,37.63
2022-11-09T03:52:04.502Z,37.50
2022-11-09T03:54:31.921Z,38.80
2022-11-09T03:57:00.289Z,39.53
2022-11-09T03:59:27.600Z,31.60
2022-11-09T04:01:54.870Z,35.57
2022-11-09T04:04:22.413Z,30.73
2022-11-09T04:06:49.532Z,32.40
2022-11-09T04:09:17.561Z,33.77
2022-11-09T04:11:44.653Z,33.77
2022-11-09T04:14:12.097Z,31.63
2022-11-09T04:16:39.522Z,33.83
2022-11-09T04:19:06.867Z,36.67
2022-11-09T04:21:34.796Z,36.87
2022-11-09T04:24:02.329Z,34.80
2022-11-09T04:26:29.428Z,36.03
2022-11-09T04:28:58.083Z,32.17
2022-11-09T04:31:27.987Z,30.83
2022-11-09T04:33:55.943Z,35.80
2022-11-09T04:36:24.703Z,39.17
2022-11-09T04:38:52.080Z,38.87
2022-11-09T04:41:19.197Z,32.40
2022-11-09T04:43:46.681Z,43.67
2022-11-09T04:46:13.838Z,40.80
2022-11-09T04:48:41.567Z,39.03
2022-11-09T04:51:12.895Z,39.43
2022-11-09T04:53:40.742Z,34.33
2022-11-09T04:56:08.242Z,32.90
2022-11-09T04:58:35.774Z,33.00
2022-11-09T05:01:05.282Z,39.87
2022-11-09T05:03:34.035Z,35.50
2022-11-09T05:06:01.553Z,34.70
2022-11-09T05:08:28.967Z,34.90
2022-11-09T05:10:59.104Z,36.07
2022-11-09T05:13:26.675Z,35.53
2022-11-09T05:15:53.662Z,39.73
2022-11-09T05:18:21.004Z,35.37
2022-11-09T05:20:48.956Z,41.90
2022-11-09T05:23:34.776Z,37.47
2022-11-09T05:26:01.802Z,38.47
2022-11-09T05:28:29.343Z,41.13
2022-11-09T05:30:56.528Z,39.17
2022-11-09T05:33:24.598Z,45.27
2022-11-09T05:35:54.600Z,39.60
2022-11-09T05:38:23.082Z,34.03
2022-11-09T05:40:51.485Z,37.40
2022-11-09T05:43:19.893Z,40.87
2022-11-09T05:45:47.892Z,40.37
2022-11-09T05:48:17.795Z,38.77
2022-11-09T05:50:45.078Z,36.80
2022-11-09T05:53:13.238Z,36.30
2022-11-09T05:55:40.590Z,36.40
2022-11-09T05:58:08.641Z,36.03
2022-11-09T06:00:35.837Z,63.30
2022-11-09T06:03:10.738Z,39.60
2022-11-09T06:05:40.711Z,46.63
2022-11-09T06:08:13.133Z,41.73
2022-11-09T06:10:41.474Z,45.37
2022-11-09T06:13:09.502Z,43.43
2022-11-09T06:15:37.863Z,40.10
2022-11-09T06:18:05.442Z,42.33
2022-11-09T06:20:33.715Z,45.13
2022-11-09T06:23:03.795Z,43.47
2022-11-09T06:25:33.274Z,41.93
2022-11-09T06:28:01.909Z,45.23
2022-11-09T06:30:29.470Z,45.13
2022-11-09T06:33:03.380Z,43.97
2022-11-09T06:35:30.849Z,45.37
2022-11-09T06:37:59.830Z,50.23
2022-11-09T06:40:27.389Z,42.70
2022-11-09T06:43:01.466Z,41.90
2022-11-09T06:45:30.088Z,47.77
2022-11-09T06:48:03.705Z,44.87
2022-11-09T06:50:33.693Z,44.13
2022-11-09T06:53:04.621Z,45.17
2022-11-09T06:55:33.553Z,49.57
2022-11-09T06:58:04.994Z,40.83
2022-11-09T07:00:32.518Z,46.33
2022-11-09T07:03:00.490Z,43.13
2022-11-09T07:05:28.421Z,51.00
2022-11-09T07:07:57.180Z,48.43
2022-11-09T07:10:24.742Z,44.53
2022-11-09T07:12:52.432Z,52.07
2022-11-09T07:15:19.646Z,47.33
2022-11-09T07:17:47.904Z,40.60
2022-11-09T07:20:15.479Z,43.97
2022-11-09T07:22:43.944Z,48.53
2022-11-09T07:25:15.779Z,48.53
2022-11-09T07:27:44.496Z,46.63
2022-11-09T07:30:11.994Z,41.77
2022-11-09T07:33:07.337Z,38.77
2022-11-09T07:35:29.033Z,36.90
2022-11-09T07:38:01.990Z,40.10
2022-11-09T07:40:30.472Z,41.40
2022-11-09T07:43:00.391Z,40.23
2022-11-09T07:45:29.343Z,38.63
2022-11-09T07:48:04.765Z,40.70
2022-11-09T07:50:33.354Z,36.37
2022-11-09T07:53:02.102Z,38.90
2022-11-09T07:55:30.185Z,39.17
2022-11-09T07:57:59.645Z,38.30
2022-11-09T08:00:28.684Z,39.77
2022-11-09T08:02:56.500Z,41.33
2022-11-09T08:05:23.807Z,37.63
2022-11-09T08:08:00.535Z,39.20
2022-11-09T08:10:29.669Z,40.80
2022-11-09T08:13:25.392Z,35.70
2022-11-09T08:15:52.791Z,34.30
2022-11-09T08:18:23.823Z,33.50
2022-11-09T08:20:51.210Z,38.70
2022-11-09T08:23:21.041Z,36.40
2022-11-09T08:25:51.271Z,36.17
2022-11-09T08:28:18.902Z,36.47
2022-11-09T08:30:46.889Z,34.37
2022-11-09T08:33:14.230Z,36.27
2022-11-09T08:35:41.701Z,37.40
2022-11-09T08:38:10.337Z,35.17
2022-11-09T08:40:37.870Z,39.77
2022-11-09T08:43:08.227Z,35.00
2022-11-09T08:45:38.073Z,31.83
2022-11-09T08:48:06.824Z,34.53
2022-11-09T08:50:35.945Z,31.63
2022-11-09T08:53:03.857Z,35.17
2022-11-09T08:55:32.045Z,34.27
2022-11-09T08:58:01.373Z,35.33
2022-11-09T09:00:29.457Z,33.30
2022-11-09T09:02:56.718Z,32.57
2022-11-09T09:05:24.465Z,34.63
2022-11-09T09:07:52.580Z,33.13
2022-11-09T09:10:21.536Z,33.07
2022-11-09T09:12:48.731Z,30.67
2022-11-09T09:15:16.322Z,32.93
2022-11-09T09:20:39.755Z,36.40
2022-11-09T09:23:07.566Z,32.90
2022-11-09T09:25:34.663Z,33.20
2022-11-09T09:28:02.445Z,36.27
2022-11-09T09:30:29.867Z,43.47
2022-11-09T09:33:01.324Z,51.60
2022-11-09T09:35:29.100Z,43.23
2022-11-09T09:37:58.317Z,42.33
2022-11-09T09:40:35.568Z,36.17
2022-11-09T09:43:03.944Z,31.13
2022-11-09T09:45:50.914Z,32.40
2022-11-09T09:48:43.973Z,32.90
2022-11-09T09:51:23.399Z,29.80
2022-11-09T09:54:16.841Z,30.13
2022-11-09T09:56:46.704Z,31.53
2022-11-09T09:59:40.373Z,34.23
2022-11-09T10:02:28.232Z,27.63
2022-11-09T10:05:01.887Z,29.87
2022-11-09T10:07:29.061Z,39.93
2022-11-09T10:10:20.781Z,34.73
2022-11-09T10:12:50.925Z,31.37
2022-11-09T10:15:35.864Z,34.73
2022-11-09T10:18:33.851Z,34.67
2022-11-09T10:21:04.169Z,35.40
2022-11-09T10:24:06.885Z,34.40
2022-11-09T10:26:34.606Z,33.03
2022-11-09T10:29:16.536Z,30.40
2022-11-09T10:31:47.181Z,33.23
2022-11-09T10:34:40.556Z,37.37
2022-11-09T10:37:15.731Z,32.47
2022-11-09T10:40:06.764Z,31.57
2022-11-09T10:42:34.647Z,33.33
2022-11-09T10:45:33.952Z,34.30
2022-11-09T10:48:11.004Z,30.67
2022-11-09T10:50:47.961Z,31.07
2022-11-09T10:53:19.968Z,31.57
2022-11-09T10:56:21.163Z,31.23
2022-11-09T10:58:54.803Z,28.80
2022-11-09T11:01:26.677Z,27.97
2022-11-09T11:03:57.503Z,29.67
2022-11-09T11:06:24.620Z,34.67
2022-11-09T11:09:00.866Z,29.80
2022-11-09T11:11:36.767Z,25.50
2022-11-09T11:14:22.471Z,31.30
2022-11-09T11:16:53.349Z,34.77
2022-11-09T11:19:39.173Z,28.13
2022-11-09T11:22:25.341Z,28.87
2022-11-09T11:25:02.007Z,28.17
2022-11-09T11:27:56.293Z,30.73
2022-11-09T11:30:35.335Z,28.87
2022-11-09T11:33:11.823Z,30.73
2022-11-09T11:35:45.562Z,26.73
2022-11-09T11:38:31.697Z,36.97
2022-11-09T11:41:14.391Z,32.53
2022-11-09T11:43:56.958Z,27.53
2022-11-09T11:47:09.703Z,30.93
2022-11-09T11:49:49.419Z,35.43
2022-11-09T11:52:28.556Z,29.13
2022-11-09T11:55:21.038Z,28.03
2022-11-09T11:58:03.884Z,29.33
2022-11-09T12:00:39.253Z,27.97
2022-11-09T12:03:33.943Z,29.83
2022-11-09T12:06:14.874Z,26.87
2022-11-09T12:08:42.045Z,28.20
2022-11-09T12:11:41.800Z,28.20
2022-11-09T12:14:15.000Z,28.37
2022-11-09T12:16:48.711Z,29.83
2022-11-09T12:19:49.340Z,28.73
2022-11-09T12:22:19.640Z,28.87
2022-11-09T12:24:58.612Z,26.50
2022-11-09T12:27:58.058Z,27.07
2022-11-09T12:30:39.171Z,26.53
2022-11-09T12:33:15.447Z,27.03
2022-11-09T12:39:27.372Z,25.00
2022-11-09T12:41:59.998Z,27.03
2022-11-09T12:44:32.467Z,27.00
2022-11-09T12:47:29.344Z,23.60
2022-11-09T12:49:57.087Z,26.77
2022-11-09T12:52:29.224Z,26.57
2022-11-09T12:54:57.831Z,29.53
2022-11-09T12:57:29.865Z,26.73
2022-11-09T12:59:59.425Z,30.77
2022-11-09T13:02:26.917Z,31.23
2022-11-09T13:05:02.503Z,27.60
2022-11-09T13:07:43.642Z,29.67
2022-11-09T13:10:31.350Z,30.27
2022-11-09T13:13:11.786Z,29.00
2022-11-09T13:15:40.575Z,28.70
2022-11-09T13:18:45.902Z,30.97
2022-11-09T13:21:22.088Z,28.63
2022-11-09T13:24:10.445Z,31.10
2022-11-09T13:26:38.711Z,27.47
2022-11-09T13:29:21.280Z,32.57
2022-11-09T13:32:28.618Z,28.67
2022-11-09T13:35:04.001Z,32.17
2022-11-09T13:37:47.646Z,37.17
2022-11-09T13:40:35.498Z,30.47
2022-11-09T13:43:04.218Z,28.60
2022-11-09T13:45:46.366Z,31.80
2022-11-09T13:48:46.115Z,29.87
2022-11-09T13:51:44.680Z,25.17
2022-11-09T13:54:32.966Z,26.75
2022-11-09T13:57:05.999Z,35.83
2022-11-09T13:59:47.082Z,28.20
2022-11-09T14:02:26.518Z,28.50
2022-11-09T14:04:54.847Z,30.17
2022-11-09T14:07:27.384Z,25.47
2022-11-09T14:10:08.276Z,27.93
2022-11-09T14:12:56.488Z,31.17
2022-11-09T14:15:55.364Z,32.13
2022-11-09T14:18:51.172Z,30.87
2022-11-09T14:21:48.598Z,28.80
2022-11-09T14:24:22.370Z,29.57
2022-11-09T14:27:28.283Z,36.37
2022-11-09T14:30:03.365Z,28.87
2022-11-09T14:32:37.295Z,29.43
2022-11-09T14:38:28.097Z,30.23
2022-11-09T14:40:56.491Z,28.83
2022-11-09T14:43:53.838Z,37.07
2022-11-09T14:46:32.076Z,29.10
2022-11-09T14:49:01.836Z,27.87
2022-11-09T14:51:37.526Z,26.80
2022-11-09T14:54:13.377Z,28.47
2022-11-09T14:56:42.621Z,29.50
2022-11-09T14:59:18.151Z,30.23
2022-11-09T15:02:12.050Z,33.07
2022-11-09T15:05:01.267Z,28.07
2022-11-09T15:07:33.340Z,35.40
2022-11-09T15:10:18.181Z,34.20
2022-11-09T15:12:53.845Z,32.93
2022-11-09T15:15:25.261Z,34.10
2022-11-09T15:17:53.323Z,29.23
2022-11-09T15:20:20.514Z,34.27
2022-11-09T15:23:06.097Z,32.60
2022-11-09T15:25:33.646Z,29.60
2022-11-09T15:28:13.033Z,33.30
2022-11-09T15:30:46.118Z,32.57
2022-11-09T15:33:39.610Z,31.93
2022-11-09T15:36:29.048Z,29.23
2022-11-09T15:38:59.344Z,30.97
2022-11-09T15:41:27.707Z,37.63
2022-11-09T15:43:55.278Z,33.63
2022-11-09T15:46:36.304Z,35.17
2022-11-09T15:49:32.269Z,34.20
2022-11-09T15:52:00.078Z,39.43
2022-11-09T15:54:27.306Z,32.93
2022-11-09T15:56:54.555Z,30.13
2022-11-09T15:59:25.667Z,31.63
2022-11-09T16:01:53.151Z,33.23
2022-11-09T16:04:20.581Z,30.37
2022-11-09T16:06:48.335Z,32.67
2022-11-09T16:09:15.967Z,33.73
2022-11-09T16:11:43.134Z,30.43
2022-11-09T16:14:11.030Z,33.87
2022-11-09T16:16:38.368Z,33.23
2022-11-09T16:19:05.730Z,33.03
2022-11-09T16:21:33.237Z,33.73
2022-11-09T16:24:00.377Z,34.50
2022-11-09T16:26:27.652Z,33.03
2022-11-09T16:28:55.274Z,32.73
2022-11-09T16:31:48.258Z,36.63
2022-11-09T16:34:10.138Z,37.23
2022-11-09T16:36:39.716Z,38.80
2022-11-09T16:39:17.344Z,40.37
2022-11-09T16:41:48.010Z,34.27
2022-11-09T16:44:22.127Z,33.00
2022-11-09T16:46:49.780Z,35.97
2022-11-09T16:49:17.235Z,33.57
2022-11-09T16:51:45.362Z,37.10
2022-11-09T16:54:12.549Z,32.13
2022-11-09T16:56:40.327Z,34.67
2022-11-09T16:59:07.615Z,31.63
2022-11-09T17:01:34.799Z,38.67
2022-11-09T17:04:02.386Z,33.57
2022-11-09T17:06:29.643Z,33.87
2022-11-09T17:08:57.619Z,35.33
2022-11-09T17:11:25.676Z,40.87
2022-11-09T17:14:00.034Z,39.40
2022-11-09T17:16:28.285Z,35.17
2022-11-09T17:18:56.877Z,36.30
2022-11-09T17:21:26.087Z,34.30
2022-11-09T17:23:55.039Z,38.13
2022-11-09T17:26:23.031Z,38.37
2022-11-09T17:28:50.653Z,40.27
2022-11-09T17:31:23.877Z,43.30
2022-11-09T17:33:51.062Z,44.17
2022-11-09T17:36:29.948Z,38.90
2022-11-09T17:39:06.469Z,42.63
2022-11-09T17:41:37.469Z,43.23
2022-11-09T17:44:07.287Z,38.40
2022-11-09T17:46:34.735Z,37.33
2022-11-09T17:49:07.037Z,50.83
2022-11-09T17:51:38.050Z,34.13
2022-11-09T17:54:05.783Z,35.00
2022-11-09T17:56:34.212Z,39.73
2022-11-09T17:59:04.048Z,35.97
2022-11-09T18:01:33.164Z,42.63
2022-11-09T18:04:11.720Z,36.40
2022-11-09T18:06:39.295Z,36.43
2022-11-09T18:11:54.275Z,34.33
2022-11-09T18:14:21.870Z,34.07
2022-11-09T18:16:49.251Z,37.47
2022-11-09T18:19:16.463Z,35.00
2022-11-09T18:21:45.859Z,39.40
2022-11-09T18:24:14.049Z,36.30
2022-11-09T18:26:41.211Z,32.13
2022-11-09T18:29:08.750Z,34.57
2022-11-09T18:31:35.938Z,33.73
2022-11-09T18:34:03.063Z,33.80
2022-11-09T18:36:30.911Z,34.37
2022-11-09T18:38:58.121Z,32.33
2022-11-09T18:41:26.202Z,37.97
2022-11-09T18:43:54.189Z,38.93
2022-11-09T18:46:22.149Z,34.30
2022-11-09T18:48:54.079Z,35.53
2022-11-09T18:51:21.279Z,36.40
2022-11-09T18:53:49.524Z,38.80
2022-11-09T18:56:22.752Z,32.67
2022-11-09T18:58:55.593Z,39.47
2022-11-09T19:01:25.620Z,33.30
2022-11-09T19:03:58.980Z,38.70
2022-11-09T19:06:27.749Z,41.90
2022-11-09T19:09:13.693Z,36.40
2022-11-09T19:11:42.226Z,35.73
2022-11-09T19:14:10.789Z,45.57
2022-11-09T19:16:38.052Z,40.93
2022-11-09T19:19:05.893Z,37.93
2022-11-09T19:21:41.581Z,38.33
2022-11-09T19:24:12.803Z,43.23
2022-11-09T19:26:40.156Z,43.90
2022-11-09T19:29:09.653Z,38.93
2022-11-09T19:31:38.429Z,47.27
2022-11-09T19:34:06.502Z,44.07
2022-11-09T19:36:33.931Z,40.67
2022-11-09T19:39:02.348Z,45.20
2022-11-09T19:41:29.549Z,42.60
2022-11-09T19:43:58.802Z,48.10
2022-11-09T19:46:27.763Z,49.07
2022-11-09T19:48:55.327Z,39.67
2022-11-09T19:51:23.298Z,47.83
2022-11-09T19:53:55.923Z,52.13
2022-11-09T19:56:25.992Z,43.90
2022-11-09T19:58:58.419Z,47.77
2022-11-09T20:01:27.999Z,60.33
2022-11-09T20:03:57.408Z,45.83
2022-11-09T20:06:26.083Z,52.43
2022-11-09T20:08:54.026Z,53.40
2022-11-09T20:11:42.930Z,51.87
2022-11-09T20:14:11.584Z,51.37
2022-11-09T20:16:40.323Z,47.20
2022-11-09T20:19:10.291Z,56.63
2022-11-09T20:21:40.521Z,47.80
2022-11-09T20:24:08.303Z,52.80
2022-11-09T20:26:36.248Z,43.83
2022-11-09T20:29:03.382Z,49.63
2022-11-09T20:31:30.555Z,47.53
2022-11-09T20:34:00.263Z,46.80
2022-11-09T20:36:27.366Z,54.27
2022-11-09T20:38:54.937Z,51.70
2022-11-09T20:41:25.422Z,52.80
2022-11-09T20:43:53.351Z,48.57
2022-11-09T20:46:24.181Z,51.77
2022-11-09T20:48:54.662Z,53.50
2022-11-09T20:51:23.975Z,49.17
2022-11-09T20:53:51.528Z,47.40
2022-11-09T20:56:20.316Z,47.63
2022-11-09T20:58:47.804Z,53.60
2022-11-09T21:01:17.902Z,41.00
2022-11-09T21:03:45.562Z,43.23
2022-11-09T21:06:13.910Z,50.10
2022-11-09T21:08:47.371Z,53.80
2022-11-09T21:11:14.861Z,50.03
2022-11-09T21:13:44.042Z,48.47
2022-11-09T21:16:14.682Z,55.00
2022-11-09T21:18:42.375Z,57.97
2022-11-09T21:21:18.787Z,51.33
2022-11-09T21:24:05.129Z,49.07
2022-11-09T21:26:51.084Z,48.47
2022-11-09T21:29:39.363Z,56.33
2022-11-09T21:32:07.872Z,50.13
2022-11-09T21:34:37.086Z,60.87
2022-11-09T21:37:05.307Z,51.73
2022-11-09T21:39:33.662Z,55.70
2022-11-09T21:42:02.344Z,50.53
2022-11-09T21:44:34.292Z,52.90
2022-11-09T21:47:02.192Z,53.27
2022-11-09T21:49:29.658Z,53.13
2022-11-09T21:51:57.723Z,51.57
2022-11-09T21:54:25.517Z,58.40
2022-11-09T21:56:53.119Z,53.50
2022-11-09T21:59:20.738Z,54.60
2022-11-09T22:01:47.929Z,55.97
2022-11-09T22:04:15.812Z,49.30
2022-11-09T22:06:43.597Z,52.03
2022-11-09T22:09:17.170Z,48.47
2022-11-09T22:12:03.882Z,52.40
2022-11-09T22:14:49.781Z,52.40
2022-11-09T22:17:17.190Z,52.00
2022-11-09T22:20:03.384Z,47.87
2022-11-09T22:22:31.660Z,52.03
2022-11-09T22:24:58.931Z,50.80
2022-11-09T22:27:26.202Z,51.47
2022-11-09T22:29:53.914Z,49.10
2022-11-09T22:32:21.769Z,45.40
2022-11-09T22:34:49.019Z,45.97
2022-11-09T22:37:16.801Z,43.00
2022-11-09T22:39:47.237Z,47.83
2022-11-09T22:42:15.059Z,49.93
2022-11-09T22:44:42.720Z,45.73
2022-11-09T22:47:09.795Z,46.00
2022-11-09T22:49:37.107Z,41.40
2022-11-09T22:52:05.401Z,46.30
2022-11-09T22:54:32.821Z,45.93
2022-11-09T22:56:59.933Z,45.27
2022-11-09T22:59:27.633Z,47.60
2022-11-09T23:01:54.788Z,43.73
2022-11-09T23:04:22.045Z,46.10
2022-11-09T23:06:49.561Z,47.57
2022-11-09T23:09:16.769Z,50.23
2022-11-09T23:11:43.927Z,54.47
2022-11-09T23:14:14.170Z,55.97
2022-11-09T23:16:41.302Z,47.03
2022-11-09T23:19:08.471Z,48.23
2022-11-09T23:21:37.478Z,52.53
2022-11-09T23:24:28.285Z,51.80
2022-11-09T23:26:55.697Z,53.53
2022-11-09T23:29:22.917Z,58.57
2022-11-09T23:31:50.407Z,55.27
2022-11-09T23:34:17.543Z,52.07
2022-11-09T23:36:44.684Z,53.37
2022-11-09T23:39:12.031Z,51.67
2022-11-09T23:41:39.248Z,50.67
2022-11-09T23:44:06.361Z,46.00
2022-11-09T23:46:33.893Z,57.73
2022-11-09T23:49:01.056Z,50.93
2022-11-09T23:51:28.124Z,50.10
2022-11-09T23:53:55.590Z,49.50
2022-11-09T23:56:22.658Z,51.30
2022-11-09T23:58:51.624Z,48.17
